Time;durP1;ratioP1;P1;durP2;ratioP2;P2;SDS_P1;SDS_P2;PMS_P1;PMS_P2;Temp;Humidity;BMP_temperature;BMP_pressure;BME280_temperature;BME280_humidity;BME280_pressure;Samples;Min_cycle;Max_cycle;Signal;HPM_P1;HPM_P2
2024/04/18 00:00:29;;;;;;;3.60;1.98;;;;;;;;;;5541371;25;20398;-58
2024/04/18 00:02:55;;;;;;;4.05;2.05;;;;;;;;;;5525850;25;20028;-59
2024/04/18 00:05:21;;;;;;;7.10;2.45;;;;;;;;;;5526617;25;20011;-58
2024/04/18 00:07:47;;;;;;;3.92;2.03;;;;;;;;;;5531799;25;20441;-58
2024/04/18 00:10:13;;;;;;;3.45;2.42;;;;;;;;;;5561551;25;20003;-58
2024/04/18 00:12:39;;;;;;;3.80;1.70;;;;;;;;;;5556055;25;19997;-57
2024/04/18 00:15:07;;;;;;;3.67;1.95;;;;;;;;;;5533121;25;20017;-58
2024/04/18 00:17:34;;;;;;;3.30;2.20;;;;;;;;;;5526786;25;20465;-58
2024/04/18 00:19:59;;;;;;;4.72;2.30;;;;;;;;;;5526718;25;20008;-53
2024/04/18 00:22:25;;;;;;;5.45;2.50;;;;;;;;;;5525845;26;20041;-54
2024/04/18 00:24:51;;;;;;;5.28;1.98;;;;;;;;;;5526291;25;20049;-54
2024/04/18 00:27:17;;;;;;;4.25;2.20;;;;;;;;;;5529021;25;20000;-53
2024/04/18 00:29:43;;;;;;;6.60;2.40;;;;;;;;;;5562131;25;20015;-54
2024/04/18 00:32:10;;;;;;;5.13;2.55;;;;;;;;;;5562188;25;20001;-54
2024/04/18 00:34:36;;;;;;;5.07;2.65;;;;;;;;;;5563025;25;20008;-54
2024/04/18 00:37:02;;;;;;;5.00;2.83;;;;;;;;;;5563107;25;19997;-54
2024/04/18 00:39:28;;;;;;;4.15;2.60;;;;;;;;;;5558773;25;20001;-54
2024/04/18 00:41:54;;;;;;;4.13;2.40;;;;;;;;;;5562775;25;20350;-55
2024/04/18 00:44:21;;;;;;;3.53;2.10;;;;;;;;;;5557690;25;19992;-55
2024/04/18 00:46:48;;;;;;;4.65;2.80;;;;;;;;;;5525626;25;20005;-53
2024/04/18 00:49:14;;;;;;;5.07;2.97;;;;;;;;;;5555760;25;20001;-54
2024/04/18 00:51:40;;;;;;;3.17;2.35;;;;;;;;;;5551027;25;20433;-53
2024/04/18 00:54:07;;;;;;;6.45;2.95;;;;;;;;;;5525297;25;20011;-54
2024/04/18 00:56:33;;;;;;;5.22;2.78;;;;;;;;;;5525841;25;19993;-54
2024/04/18 00:58:59;;;;;;;7.63;3.20;;;;;;;;;;5527240;25;20433;-55
2024/04/18 01:01:26;;;;;;;5.03;2.78;;;;;;;;;;5524408;25;20008;-50
2024/04/18 01:03:52;;;;;;;6.28;2.85;;;;;;;;;;5525520;25;20506;-52
2024/04/18 01:06:18;;;;;;;4.32;2.88;;;;;;;;;;5525786;26;19997;-50
2024/04/18 01:08:44;;;;;;;6.63;2.58;;;;;;;;;;5559014;25;20011;-50
2024/04/18 01:11:10;;;;;;;5.07;2.70;;;;;;;;;;5538144;25;20024;-50
2024/04/18 01:13:36;;;;;;;6.78;2.88;;;;;;;;;;5544466;25;19996;-50
2024/04/18 01:16:03;;;;;;;3.70;2.35;;;;;;;;;;5549494;25;20550;-49
2024/04/18 01:18:29;;;;;;;4.90;2.80;;;;;;;;;;5544355;25;20012;-53
2024/04/18 01:20:55;;;;;;;4.00;2.47;;;;;;;;;;5525697;25;20001;-49
2024/04/18 01:23:21;;;;;;;4.30;2.33;;;;;;;;;;5525011;25;19997;-50
2024/04/18 01:25:47;;;;;;;4.65;2.42;;;;;;;;;;5553780;25;19997;-48
2024/04/18 01:28:13;;;;;;;4.50;2.80;;;;;;;;;;5556528;25;20040;-53
2024/04/18 01:30:39;;;;;;;7.32;2.78;;;;;;;;;;5562247;25;20001;-48
2024/04/18 01:33:05;;;;;;;5.35;2.88;;;;;;;;;;5531209;25;19998;-50
2024/04/18 01:35:31;;;;;;;5.88;2.42;;;;;;;;;;5525289;25;20362;-51
2024/04/18 01:37:57;;;;;;;5.93;2.22;;;;;;;;;;5532699;25;20024;-48
2024/04/18 01:40:23;;;;;;;7.93;2.58;;;;;;;;;;5552853;25;20032;-48
2024/04/18 01:42:49;;;;;;;3.50;2.63;;;;;;;;;;5524771;25;20008;-50
2024/04/18 01:45:15;;;;;;;6.78;2.83;;;;;;;;;;5535616;25;20037;-50
2024/04/18 01:47:40;;;;;;;5.68;2.70;;;;;;;;;;5540839;25;20541;-49
2024/04/18 01:50:07;;;;;;;5.40;2.70;;;;;;;;;;5525108;25;20042;-50
2024/04/18 01:52:33;;;;;;;4.30;2.40;;;;;;;;;;5524169;25;19997;-50
2024/04/18 01:54:59;;;;;;;4.55;2.42;;;;;;;;;;5531592;25;20333;-48
2024/04/18 01:57:25;;;;;;;4.25;2.13;;;;;;;;;;5524972;25;20034;-48
2024/04/18 01:59:51;;;;;;;3.78;2.53;;;;;;;;;;5524408;25;20009;-51
2024/04/18 02:02:18;;;;;;;4.65;2.30;;;;;;;;;;5531016;25;20002;-50
2024/04/18 02:04:44;;;;;;;3.78;2.20;;;;;;;;;;5529926;25;20445;-51
2024/04/18 02:07:10;;;;;;;4.22;2.60;;;;;;;;;;5523984;25;20025;-48
2024/04/18 02:09:36;;;;;;;4.32;2.05;;;;;;;;;;5550069;25;20006;-50
2024/04/18 02:12:02;;;;;;;4.15;2.30;;;;;;;;;;5534070;25;20013;-52
2024/04/18 02:14:28;;;;;;;3.63;2.20;;;;;;;;;;5562181;25;20424;-51
2024/04/18 02:16:54;;;;;;;4.15;2.40;;;;;;;;;;5543875;25;20008;-48
2024/04/18 02:19:20;;;;;;;3.63;2.15;;;;;;;;;;5530176;25;19993;-50
2024/04/18 02:21:46;;;;;;;3.78;2.35;;;;;;;;;;5527951;25;20322;-48
2024/04/18 02:24:12;;;;;;;4.97;2.05;;;;;;;;;;5531270;25;20012;-50
2024/04/18 02:26:38;;;;;;;4.05;2.00;;;;;;;;;;5528004;25;19994;-49
2024/04/18 02:29:04;;;;;;;3.15;2.35;;;;;;;;;;5527832;25;20016;-50
2024/04/18 02:31:30;;;;;;;4.25;2.53;;;;;;;;;;5528142;25;19997;-47
2024/04/18 02:33:56;;;;;;;3.85;2.53;;;;;;;;;;5527412;25;19993;-50
2024/04/18 02:36:24;;;;;;;3.22;2.13;;;;;;;;;;5527803;26;20000;-50
2024/04/18 02:38:49;;;;;;;4.97;2.30;;;;;;;;;;5539370;25;19997;-50
2024/04/18 02:41:15;;;;;;;5.50;2.50;;;;;;;;;;5527314;25;20001;-49
2024/04/18 02:43:41;;;;;;;3.90;2.38;;;;;;;;;;5530399;25;19993;-51
2024/04/18 02:46:07;;;;;;;6.95;2.08;;;;;;;;;;5546372;25;20029;-48
2024/04/18 02:48:33;;;;;;;3.25;2.22;;;;;;;;;;5527945;25;20005;-48
2024/04/18 02:50:59;;;;;;;8.30;2.20;;;;;;;;;;5527982;25;20001;-52
2024/04/18 02:53:25;;;;;;;3.33;2.13;;;;;;;;;;5527046;25;20033;-50
2024/04/18 02:55:51;;;;;;;5.50;2.17;;;;;;;;;;5527646;26;20328;-50
2024/04/18 02:58:17;;;;;;;4.35;2.33;;;;;;;;;;5540351;25;19993;-50
2024/04/18 03:00:43;;;;;;;3.72;2.30;;;;;;;;;;5532739;25;19997;-50
2024/04/18 03:03:09;;;;;;;5.50;2.30;;;;;;;;;;5548890;25;20002;-50
2024/04/18 03:05:35;;;;;;;4.05;2.00;;;;;;;;;;5527453;25;19997;-50
2024/04/18 03:08:01;;;;;;;3.92;2.30;;;;;;;;;;5549194;25;19996;-50
2024/04/18 03:10:27;;;;;;;5.70;2.20;;;;;;;;;;5561197;25;20008;-54
2024/04/18 03:12:53;;;;;;;4.18;1.85;;;;;;;;;;5549673;25;20037;-50
2024/04/18 03:15:19;;;;;;;4.55;2.33;;;;;;;;;;5527223;25;19998;-50
2024/04/18 03:17:45;;;;;;;4.88;2.28;;;;;;;;;;5533971;25;20044;-48
2024/04/18 03:20:11;;;;;;;3.85;2.38;;;;;;;;;;5528448;25;20029;-49
2024/04/18 03:22:41;;;;;;;4.68;2.22;;;;;;;;;;5526981;25;20508;-51
2024/04/18 03:25:07;;;;;;;4.05;2.22;;;;;;;;;;5524099;25;20102;-50
2024/04/18 03:27:33;;;;;;;3.28;2.30;;;;;;;;;;5527832;25;20013;-49
2024/04/18 03:29:59;;;;;;;5.05;2.28;;;;;;;;;;5527760;25;19993;-48
2024/04/18 03:32:25;;;;;;;4.45;2.25;;;;;;;;;;5524768;25;20398;-50
2024/04/18 03:34:51;;;;;;;4.30;2.45;;;;;;;;;;5527270;26;20015;-49
2024/04/18 03:37:17;;;;;;;4.75;2.20;;;;;;;;;;5527544;25;20001;-49
2024/04/18 03:39:43;;;;;;;4.93;2.25;;;;;;;;;;5551787;25;20077;-50
2024/04/18 03:42:09;;;;;;;5.88;2.25;;;;;;;;;;5527307;25;20009;-51
2024/04/18 03:44:36;;;;;;;4.22;2.00;;;;;;;;;;5552475;25;19997;-50
2024/04/18 03:47:02;;;;;;;5.93;3.17;;;;;;;;;;5525466;25;19997;-51
2024/04/18 03:49:28;;;;;;;4.13;2.20;;;;;;;;;;5527138;25;20465;-49
2024/04/18 03:51:55;;;;;;;5.50;2.10;;;;;;;;;;5526696;26;20333;-50
2024/04/18 03:54:21;;;;;;;4.95;2.50;;;;;;;;;;5526410;25;20414;-49
2024/04/18 03:56:48;;;;;;;3.45;2.33;;;;;;;;;;5526658;25;20011;-48
2024/04/18 03:59:14;;;;;;;3.88;2.45;;;;;;;;;;5552867;25;20012;-51
2024/04/18 04:01:40;;;;;;;5.45;2.20;;;;;;;;;;5560194;25;20017;-49
2024/04/18 04:04:06;;;;;;;4.03;2.20;;;;;;;;;;5538952;25;20007;-49
2024/04/18 04:06:32;;;;;;;5.65;2.70;;;;;;;;;;5557499;25;20003;-49
2024/04/18 04:08:58;;;;;;;6.10;2.70;;;;;;;;;;5535347;25;19993;-50
2024/04/18 04:11:25;;;;;;;5.28;2.15;;;;;;;;;;5538892;25;20012;-54
2024/04/18 04:13:51;;;;;;;4.65;2.20;;;;;;;;;;5545799;25;20001;-55
2024/04/18 04:16:20;;;;;;;5.03;2.30;;;;;;;;;;5536928;25;20008;-54
2024/04/18 04:18:50;;;;;;;5.60;2.90;;;;;;;;;;5547529;25;19997;-54
2024/04/18 04:21:17;;;;;;;5.15;2.35;;;;;;;;;;5541448;25;19994;-53
2024/04/18 04:23:43;;;;;;;3.45;2.28;;;;;;;;;;5561710;25;20544;-54
2024/04/18 04:26:09;;;;;;;3.90;2.40;;;;;;;;;;5558587;25;20460;-54
2024/04/18 04:28:35;;;;;;;5.25;2.33;;;;;;;;;;5545598;25;20198;-54
2024/04/18 04:31:01;;;;;;;4.15;2.22;;;;;;;;;;5543356;25;20001;-52
2024/04/18 04:33:28;;;;;;;3.72;2.38;;;;;;;;;;5547420;25;20008;-53
2024/04/18 04:35:54;;;;;;;4.53;2.42;;;;;;;;;;5550810;25;19997;-54
2024/04/18 04:38:20;;;;;;;5.45;2.63;;;;;;;;;;5527703;25;20358;-54
2024/04/18 04:40:46;;;;;;;10.40;2.55;;;;;;;;;;5543442;25;20314;-54
2024/04/18 04:43:12;;;;;;;6.50;2.78;;;;;;;;;;5542042;25;20033;-55
2024/04/18 04:45:38;;;;;;;3.60;2.45;;;;;;;;;;5535845;25;20435;-53
2024/04/18 04:48:05;;;;;;;4.72;2.65;;;;;;;;;;5557776;25;20478;-54
2024/04/18 04:50:30;;;;;;;5.65;2.50;;;;;;;;;;5556837;25;20072;-52
2024/04/18 04:52:56;;;;;;;3.75;2.05;;;;;;;;;;5533882;25;19997;-53
2024/04/18 04:55:22;;;;;;;4.90;2.17;;;;;;;;;;5530884;25;20034;-54
2024/04/18 04:57:48;;;;;;;4.25;2.42;;;;;;;;;;5540419;25;20000;-54
2024/04/18 05:00:14;;;;;;;4.63;2.60;;;;;;;;;;5529835;25;20008;-54
2024/04/18 05:02:40;;;;;;;5.38;2.25;;;;;;;;;;5545717;25;20002;-53
2024/04/18 05:05:08;;;;;;;8.00;2.75;;;;;;;;;;5541724;25;20409;-54
2024/04/18 05:07:34;;;;;;;6.53;2.95;;;;;;;;;;5541811;25;20006;-54
2024/04/18 05:10:00;;;;;;;5.78;2.90;;;;;;;;;;5556788;25;19996;-54
2024/04/18 05:12:26;;;;;;;3.60;2.67;;;;;;;;;;5538852;25;20457;-55
2024/04/18 05:14:51;;;;;;;4.10;2.45;;;;;;;;;;5550967;25;20334;-54
2024/04/18 05:17:18;;;;;;;8.02;3.38;;;;;;;;;;5532165;25;20008;-54
2024/04/18 05:19:44;;;;;;;3.65;2.60;;;;;;;;;;5535824;25;20007;-53
2024/04/18 05:22:10;;;;;;;4.97;2.53;;;;;;;;;;5556257;25;20473;-54
2024/04/18 05:24:36;;;;;;;4.97;2.25;;;;;;;;;;5561245;25;20450;-54
2024/04/18 05:27:02;;;;;;;5.32;2.50;;;;;;;;;;5538158;25;20001;-53
2024/04/18 05:32:12;;;;;;;5.63;2.47;;;;;;;;;;5560740;25;20015;-53
2024/04/18 05:34:38;;;;;;;4.15;2.45;;;;;;;;;;5560722;25;20437;-54
2024/04/18 05:37:04;;;;;;;5.70;2.90;;;;;;;;;;5561296;25;20071;-54
2024/04/18 05:39:30;;;;;;;6.07;3.00;;;;;;;;;;5551087;25;19997;-49
2024/04/18 05:41:56;;;;;;;7.28;3.15;;;;;;;;;;5552899;25;20025;-50
2024/04/18 05:44:24;;;;;;;4.40;2.70;;;;;;;;;;5547263;25;19996;-49
2024/04/18 05:46:50;;;;;;;5.88;3.15;;;;;;;;;;5533159;25;20011;-51
2024/04/18 05:49:20;;;;;;;5.32;2.78;;;;;;;;;;5559906;25;20396;-49
2024/04/18 05:51:46;;;;;;;5.75;3.05;;;;;;;;;;5549358;25;20029;-49
2024/04/18 05:54:13;;;;;;;9.40;2.95;;;;;;;;;;5546880;25;19996;-49
2024/04/18 05:56:39;;;;;;;7.40;3.08;;;;;;;;;;5544738;25;20757;-51
2024/04/18 05:59:05;;;;;;;5.38;2.88;;;;;;;;;;5554544;25;20336;-51
2024/04/18 06:01:30;;;;;;;7.40;3.40;;;;;;;;;;5560706;25;20012;-50
2024/04/18 06:03:56;;;;;;;6.00;3.08;;;;;;;;;;5560430;25;20011;-50
2024/04/18 06:06:22;;;;;;;5.05;2.80;;;;;;;;;;5524361;25;20073;-50
2024/04/18 06:08:51;;;;;;;10.07;3.05;;;;;;;;;;5533193;25;19998;-50
2024/04/18 06:11:17;;;;;;;7.32;2.88;;;;;;;;;;5557578;25;20011;-52
2024/04/18 06:13:43;;;;;;;6.15;2.80;;;;;;;;;;5543051;25;20025;-50
2024/04/18 06:16:10;;;;;;;6.43;3.33;;;;;;;;;;5526800;25;20072;-48
2024/04/18 06:18:36;;;;;;;6.55;3.08;;;;;;;;;;5545837;25;20020;-48
2024/04/18 06:21:02;;;;;;;5.22;3.13;;;;;;;;;;5551463;25;20457;-51
2024/04/18 06:23:28;;;;;;;6.82;3.70;;;;;;;;;;5556284;25;20004;-49
2024/04/18 06:25:56;;;;;;;7.85;2.92;;;;;;;;;;5556590;25;20303;-51
2024/04/18 06:28:22;;;;;;;6.68;3.47;;;;;;;;;;5556628;25;19993;-51
2024/04/18 06:30:48;;;;;;;8.60;3.47;;;;;;;;;;5544105;25;20025;-50
2024/04/18 06:33:14;;;;;;;6.82;3.55;;;;;;;;;;5556065;25;20373;-48
2024/04/18 06:35:41;;;;;;;6.10;3.33;;;;;;;;;;5556061;25;19996;-49
2024/04/18 06:38:07;;;;;;;7.55;3.60;;;;;;;;;;5547882;25;20020;-51
2024/04/18 06:40:33;;;;;;;8.07;3.22;;;;;;;;;;5553297;25;20067;-52
2024/04/18 06:42:59;;;;;;;6.45;3.30;;;;;;;;;;5560939;25;20001;-50
2024/04/18 06:45:25;;;;;;;8.20;3.08;;;;;;;;;;5558187;25;20037;-52
2024/04/18 06:47:52;;;;;;;4.43;2.50;;;;;;;;;;5556980;25;20065;-50
2024/04/18 06:50:18;;;;;;;7.90;2.53;;;;;;;;;;5559562;25;20005;-51
2024/04/18 06:52:44;;;;;;;3.80;2.40;;;;;;;;;;5559570;25;19996;-51
2024/04/18 06:55:10;;;;;;;3.55;1.80;;;;;;;;;;5555061;25;20041;-51
2024/04/18 06:57:36;;;;;;;3.72;1.92;;;;;;;;;;5545751;25;20110;-50
2024/04/18 07:00:02;;;;;;;5.80;2.00;;;;;;;;;;5562282;25;20012;-51
2024/04/18 07:02:28;;;;;;;3.53;1.58;;;;;;;;;;5562924;25;20000;-49
2024/04/18 07:04:54;;;;;;;3.50;2.00;;;;;;;;;;5549623;25;20345;-52
2024/04/18 07:07:20;;;;;;;2.45;1.80;;;;;;;;;;5551707;25;19996;-54
2024/04/18 07:09:46;;;;;;;3.28;1.45;;;;;;;;;;5541329;25;20029;-51
2024/04/18 07:12:12;;;;;;;3.45;2.00;;;;;;;;;;5546645;25;19997;-51
2024/04/18 07:14:38;;;;;;;2.70;1.60;;;;;;;;;;5563535;25;20021;-51
2024/04/18 07:17:04;;;;;;;2.15;1.58;;;;;;;;;;5563177;25;20004;-50
2024/04/18 07:19:30;;;;;;;5.57;1.95;;;;;;;;;;5563109;25;20338;-51
2024/04/18 07:21:56;;;;;;;3.13;1.63;;;;;;;;;;5541480;25;20002;-49
2024/04/18 07:24:26;;;;;;;2.55;1.63;;;;;;;;;;5562601;25;20011;-51
2024/04/18 07:26:52;;;;;;;2.00;1.50;;;;;;;;;;5534210;25;20012;-50
2024/04/18 07:29:17;;;;;;;1.65;1.20;;;;;;;;;;5541605;25;19998;-49
2024/04/18 07:31:43;;;;;;;1.65;1.17;;;;;;;;;;5555402;25;20443;-49
2024/04/18 07:34:09;;;;;;;2.03;1.30;;;;;;;;;;5562154;25;20004;-50
2024/04/18 07:36:35;;;;;;;1.50;1.30;;;;;;;;;;5560685;25;19996;-52
2024/04/18 07:39:01;;;;;;;4.20;1.45;;;;;;;;;;5549832;25;20033;-52
2024/04/18 07:41:27;;;;;;;3.53;1.15;;;;;;;;;;5559238;25;20440;-51
2024/04/18 07:43:53;;;;;;;2.95;0.93;;;;;;;;;;5554632;25;20394;-52
2024/04/18 07:46:19;;;;;;;1.42;1.05;;;;;;;;;;5551776;25;20040;-52
2024/04/18 07:48:46;;;;;;;2.70;1.10;;;;;;;;;;5562720;25;20100;-52
2024/04/18 07:51:12;;;;;;;2.70;0.93;;;;;;;;;;5562559;25;20001;-51
2024/04/18 07:53:38;;;;;;;2.33;1.13;;;;;;;;;;5562187;25;19997;-51
2024/04/18 07:56:07;;;;;;;2.35;1.10;;;;;;;;;;5562698;25;20166;-52
2024/04/18 07:58:33;;;;;;;1.83;1.08;;;;;;;;;;5544383;25;20008;-58
2024/04/18 08:00:59;;;;;;;1.80;0.77;;;;;;;;;;5562519;25;20408;-58
2024/04/18 08:03:25;;;;;;;3.75;1.05;;;;;;;;;;5561815;25;20031;-58
2024/04/18 08:05:51;;;;;;;2.05;0.82;;;;;;;;;;5537469;25;20749;-58
2024/04/18 08:08:17;;;;;;;2.78;0.93;;;;;;;;;;5550064;25;19998;-58
2024/04/18 08:10:44;;;;;;;4.70;0.77;;;;;;;;;;5552273;25;20001;-58
2024/04/18 08:13:11;;;;;;;1.17;0.70;;;;;;;;;;5559464;25;20011;-59
2024/04/18 08:15:39;;;;;;;1.17;0.63;;;;;;;;;;5559488;25;20001;-58
2024/04/18 08:18:06;;;;;;;1.55;0.65;;;;;;;;;;5554466;25;20421;-58
2024/04/18 08:20:32;;;;;;;1.35;0.88;;;;;;;;;;5559832;25;20008;-58
2024/04/18 08:22:58;;;;;;;0.88;0.50;;;;;;;;;;5561742;25;20001;-58
2024/04/18 08:25:24;;;;;;;2.13;0.50;;;;;;;;;;5562279;25;20446;-58
2024/04/18 08:27:50;;;;;;;0.68;0.50;;;;;;;;;;5557212;25;20007;-58
2024/04/18 08:30:16;;;;;;;1.75;0.50;;;;;;;;;;5562067;25;20484;-57
2024/04/18 08:32:42;;;;;;;1.35;0.50;;;;;;;;;;5561676;25;20023;-58
2024/04/18 08:35:08;;;;;;;0.63;0.40;;;;;;;;;;5562084;25;20001;-58
2024/04/18 08:37:34;;;;;;;1.23;0.50;;;;;;;;;;5560724;25;20442;-58
2024/04/18 08:40:00;;;;;;;1.30;0.70;;;;;;;;;;5549647;25;20009;-58
2024/04/18 08:42:28;;;;;;;2.28;0.68;;;;;;;;;;5544691;25;21143;-59
2024/04/18 08:44:57;;;;;;;1.00;0.60;;;;;;;;;;5559603;25;20053;-59
2024/04/18 08:47:26;;;;;;;4.45;0.60;;;;;;;;;;5562058;25;20004;-59
2024/04/18 08:49:55;;;;;;;0.90;0.50;;;;;;;;;;5555120;25;20033;-58
2024/04/18 08:52:21;;;;;;;1.75;0.82;;;;;;;;;;5544774;25;20004;-59
2024/04/18 08:54:47;;;;;;;0.80;0.57;;;;;;;;;;5554661;25;19993;-59
2024/04/18 08:57:20;;;;;;;1.05;0.75;;;;;;;;;;5528010;25;20065;-59
2024/04/18 08:59:48;;;;;;;2.15;0.68;;;;;;;;;;5558820;25;20546;-59
2024/04/18 09:02:15;;;;;;;1.55;0.75;;;;;;;;;;5561578;25;20000;-59
2024/04/18 09:04:41;;;;;;;1.08;0.60;;;;;;;;;;5548878;25;20417;-59
2024/04/18 09:07:07;;;;;;;1.33;0.50;;;;;;;;;;5547012;25;20297;-60
2024/04/18 09:09:33;;;;;;;4.70;0.85;;;;;;;;;;5539426;25;19993;-58
2024/04/18 09:11:59;;;;;;;0.52;0.32;;;;;;;;;;5551886;25;20437;-58
2024/04/18 09:14:26;;;;;;;2.33;0.40;;;;;;;;;;5558596;25;20330;-59
2024/04/18 09:16:52;;;;;;;1.40;0.50;;;;;;;;;;5561572;25;20472;-59
2024/04/18 09:19:19;;;;;;;1.58;0.60;;;;;;;;;;5561294;25;20000;-59
2024/04/18 09:21:45;;;;;;;1.35;0.70;;;;;;;;;;5561205;25;20329;-59
2024/04/18 09:24:11;;;;;;;2.33;0.68;;;;;;;;;;5559655;25;19997;-58
2024/04/18 09:26:37;;;;;;;1.65;0.60;;;;;;;;;;5560953;25;19996;-59
2024/04/18 09:29:03;;;;;;;1.77;0.40;;;;;;;;;;5555707;25;19997;-59
2024/04/18 09:31:29;;;;;;;1.20;0.70;;;;;;;;;;5546863;25;20032;-59
2024/04/18 09:33:55;;;;;;;2.35;0.57;;;;;;;;;;5560871;25;19993;-59
2024/04/18 09:36:21;;;;;;;1.40;0.40;;;;;;;;;;5561213;25;20004;-58
2024/04/18 09:38:48;;;;;;;0.75;0.60;;;;;;;;;;5551073;25;19997;-58
2024/04/18 09:41:24;;;;;;;1.23;0.50;;;;;;;;;;5555884;25;20452;-58
2024/04/18 09:44:02;;;;;;;0.90;0.50;;;;;;;;;;5537950;25;20065;-59
2024/04/18 09:46:31;;;;;;;1.02;0.45;;;;;;;;;;5531351;25;19994;-60
2024/04/18 09:48:57;;;;;;;2.17;0.60;;;;;;;;;;5542047;25;19997;-58
2024/04/18 09:51:23;;;;;;;1.33;0.50;;;;;;;;;;5561057;25;19993;-59
2024/04/18 09:53:50;;;;;;;1.05;0.40;;;;;;;;;;5558674;25;20008;-57
2024/04/18 09:56:17;;;;;;;0.93;0.65;;;;;;;;;;5561315;25;20445;-59
2024/04/18 09:58:44;;;;;;;7.70;0.85;;;;;;;;;;5550632;25;20008;-59
2024/04/18 10:01:10;;;;;;;1.65;0.50;;;;;;;;;;5561053;25;20321;-59
2024/04/18 10:03:36;;;;;;;1.02;0.50;;;;;;;;;;5560124;25;19992;-58
2024/04/18 10:06:04;;;;;;;2.63;0.40;;;;;;;;;;5535416;25;20346;-58
2024/04/18 10:08:32;;;;;;;1.42;0.47;;;;;;;;;;5544348;25;19993;-59
2024/04/18 10:10:58;;;;;;;0.95;0.40;;;;;;;;;;5552237;25;19996;-59
2024/04/18 10:13:24;;;;;;;1.15;0.40;;;;;;;;;;5541523;25;20001;-59
2024/04/18 10:15:50;;;;;;;0.75;0.45;;;;;;;;;;5560310;25;20464;-58
2024/04/18 10:18:17;;;;;;;1.13;0.40;;;;;;;;;;5560709;25;19997;-56
2024/04/18 10:20:46;;;;;;;0.60;0.30;;;;;;;;;;5536447;25;19997;-54
2024/04/18 10:23:15;;;;;;;2.13;0.65;;;;;;;;;;5559979;25;20001;-56
2024/04/18 10:25:43;;;;;;;3.05;0.50;;;;;;;;;;5558341;25;20447;-56
2024/04/18 10:28:26;;;;;;;0.60;0.45;;;;;;;;;;5549382;25;20433;-56
2024/04/18 10:30:52;;;;;;;0.80;0.40;;;;;;;;;;5536293;25;20037;-56
2024/04/18 10:33:29;;;;;;;1.27;0.50;;;;;;;;;;5559344;25;20000;-56
2024/04/18 10:35:55;;;;;;;2.10;0.60;;;;;;;;;;5564080;25;20337;-56
2024/04/18 10:38:28;;;;;;;0.65;0.38;;;;;;;;;;5551830;25;20013;-56
2024/04/18 10:41:03;;;;;;;0.60;0.60;;;;;;;;;;5563957;25;20012;-56
2024/04/18 10:43:30;;;;;;;1.60;0.50;;;;;;;;;;5561117;25;20011;-56
2024/04/18 10:45:56;;;;;;;0.40;0.35;;;;;;;;;;5563571;25;19992;-56
2024/04/18 10:48:22;;;;;;;3.55;0.55;;;;;;;;;;5557126;25;20007;-56
2024/04/18 10:50:51;;;;;;;0.60;0.38;;;;;;;;;;5564040;25;20448;-56
2024/04/18 10:53:18;;;;;;;0.60;0.40;;;;;;;;;;5562996;25;19997;-56
2024/04/18 10:55:44;;;;;;;0.70;0.40;;;;;;;;;;5548009;25;19992;-56
2024/04/18 10:58:16;;;;;;;0.88;0.40;;;;;;;;;;5537886;25;19997;-56
2024/04/18 11:00:45;;;;;;;0.80;0.63;;;;;;;;;;5563770;25;19997;-56
2024/04/18 11:03:12;;;;;;;0.70;0.50;;;;;;;;;;5551572;25;20558;-56
2024/04/18 11:05:40;;;;;;;1.70;0.63;;;;;;;;;;5526163;25;20037;-56
2024/04/18 11:08:06;;;;;;;0.90;0.57;;;;;;;;;;5528836;25;20001;-56
2024/04/18 11:10:32;;;;;;;0.82;0.50;;;;;;;;;;5551126;25;20011;-57
2024/04/18 11:13:00;;;;;;;1.15;0.95;;;;;;;;;;5549782;25;20022;-56
2024/04/18 11:15:26;;;;;;;1.10;0.50;;;;;;;;;;5563088;25;19992;-56
2024/04/18 11:17:52;;;;;;;2.25;0.63;;;;;;;;;;5563483;25;19993;-55
2024/04/18 11:20:19;;;;;;;1.30;0.65;;;;;;;;;;5563276;25;20068;-56
2024/04/18 11:22:45;;;;;;;0.47;0.40;;;;;;;;;;5562871;25;20196;-56
2024/04/18 11:25:11;;;;;;;1.52;0.60;;;;;;;;;;5559316;25;20348;-56
2024/04/18 11:27:38;;;;;;;1.17;0.70;;;;;;;;;;5537470;25;20003;-57
2024/04/18 11:30:06;;;;;;;1.30;0.40;;;;;;;;;;5563226;25;20016;-59
2024/04/18 11:32:32;;;;;;;1.00;0.30;;;;;;;;;;5562668;25;20007;-59
2024/04/18 11:34:58;;;;;;;2.00;0.43;;;;;;;;;;5562804;25;19997;-59
2024/04/18 11:37:24;;;;;;;1.15;0.40;;;;;;;;;;5560930;25;19992;-59
2024/04/18 11:39:50;;;;;;;1.00;0.60;;;;;;;;;;5553346;25;20004;-57
2024/04/18 11:42:16;;;;;;;0.85;0.38;;;;;;;;;;5561200;25;20425;-57
2024/04/18 11:44:44;;;;;;;0.20;0.20;;;;;;;;;;5553408;25;20033;-58
2024/04/18 11:47:10;;;;;;;1.88;0.40;;;;;;;;;;5545916;25;20020;-59
2024/04/18 11:49:36;;;;;;;1.88;0.50;;;;;;;;;;5562716;25;20442;-59
2024/04/18 11:52:02;;;;;;;2.08;0.40;;;;;;;;;;5545847;25;20000;-58
2024/04/18 11:54:29;;;;;;;1.00;0.50;;;;;;;;;;5562161;25;20001;-58
2024/04/18 11:56:55;;;;;;;1.45;0.40;;;;;;;;;;5563065;25;20004;-59
2024/04/18 11:59:21;;;;;;;3.00;0.43;;;;;;;;;;5556896;25;20008;-59
2024/04/18 12:01:47;;;;;;;0.90;0.30;;;;;;;;;;5562873;25;20055;-59
2024/04/18 12:04:13;;;;;;;0.70;0.32;;;;;;;;;;5535245;25;20025;-59
2024/04/18 12:06:39;;;;;;;1.05;0.20;;;;;;;;;;5540107;25;20068;-60
2024/04/18 12:09:05;;;;;;;0.68;0.30;;;;;;;;;;5539666;25;20259;-57
2024/04/18 12:11:31;;;;;;;0.43;0.10;;;;;;;;;;5562496;25;20413;-60
2024/04/18 12:13:57;;;;;;;1.25;0.22;;;;;;;;;;5555881;25;20020;-60
2024/04/18 12:16:24;;;;;;;3.47;0.30;;;;;;;;;;5549992;25;20350;-60
2024/04/18 12:18:51;;;;;;;0.85;0.20;;;;;;;;;;5551935;25;20477;-60
2024/04/18 12:21:17;;;;;;;1.65;0.40;;;;;;;;;;5543921;25;20005;-59
2024/04/18 12:23:43;;;;;;;0.40;0.10;;;;;;;;;;5557241;25;20012;-60
2024/04/18 12:26:10;;;;;;;1.00;0.30;;;;;;;;;;5539197;25;20500;-60
2024/04/18 12:28:36;;;;;;;0.77;0.30;;;;;;;;;;5556287;25;19993;-58
2024/04/18 12:31:02;;;;;;;1.02;0.30;;;;;;;;;;5544801;25;20008;-60
2024/04/18 12:33:28;;;;;;;0.60;0.32;;;;;;;;;;5545823;25;19993;-59
2024/04/18 12:35:54;;;;;;;0.55;0.22;;;;;;;;;;5532881;25;20008;-60
2024/04/18 12:38:20;;;;;;;0.63;0.22;;;;;;;;;;5542334;25;20011;-59
2024/04/18 12:40:46;;;;;;;2.25;0.43;;;;;;;;;;5539756;25;20004;-59
2024/04/18 12:43:12;;;;;;;0.90;0.30;;;;;;;;;;5551450;25;20000;-59
2024/04/18 12:45:38;;;;;;;2.72;0.60;;;;;;;;;;5560507;25;20417;-59
2024/04/18 12:48:04;;;;;;;0.45;0.22;;;;;;;;;;5547661;25;20027;-58
2024/04/18 12:50:31;;;;;;;0.55;0.20;;;;;;;;;;5543739;25;19993;-60
2024/04/18 12:52:57;;;;;;;1.02;0.20;;;;;;;;;;5544700;25;20072;-59
2024/04/18 12:55:23;;;;;;;1.27;0.55;;;;;;;;;;5562033;25;20409;-60
2024/04/18 12:57:49;;;;;;;0.57;0.30;;;;;;;;;;5556360;25;20356;-60
2024/04/18 13:00:16;;;;;;;0.68;0.30;;;;;;;;;;5531004;25;20019;-60
2024/04/18 13:02:43;;;;;;;0.70;0.28;;;;;;;;;;5552089;25;19997;-59
2024/04/18 13:05:09;;;;;;;1.77;0.20;;;;;;;;;;5544458;25;20445;-60
2024/04/18 13:07:35;;;;;;;0.65;0.20;;;;;;;;;;5554218;25;19992;-59
2024/04/18 13:10:04;;;;;;;0.93;0.17;;;;;;;;;;5527575;25;19997;-60
2024/04/18 13:12:29;;;;;;;1.83;0.30;;;;;;;;;;5547098;25;20433;-60
2024/04/18 13:14:55;;;;;;;1.00;0.20;;;;;;;;;;5545899;25;20025;-59
2024/04/18 13:17:21;;;;;;;2.30;0.20;;;;;;;;;;5560016;25;20374;-60
2024/04/18 13:19:47;;;;;;;0.80;0.30;;;;;;;;;;5550529;25;20377;-60
2024/04/18 13:22:14;;;;;;;0.57;0.25;;;;;;;;;;5560494;25;20001;-58
2024/04/18 13:24:40;;;;;;;1.00;0.20;;;;;;;;;;5561735;25;20448;-60
2024/04/18 13:27:06;;;;;;;0.95;0.20;;;;;;;;;;5550033;25;20094;-59
2024/04/18 13:29:32;;;;;;;0.73;0.20;;;;;;;;;;5554555;25;19996;-60
2024/04/18 13:31:59;;;;;;;0.40;0.20;;;;;;;;;;5554481;25;20488;-59
2024/04/18 13:34:25;;;;;;;0.30;0.10;;;;;;;;;;5555617;25;20011;-59
2024/04/18 13:36:51;;;;;;;0.63;0.17;;;;;;;;;;5559364;25;20025;-60
2024/04/18 13:39:17;;;;;;;1.77;0.20;;;;;;;;;;5549937;25;19997;-60
2024/04/18 13:41:44;;;;;;;1.27;0.20;;;;;;;;;;5543805;25;19993;-59
2024/04/18 13:44:10;;;;;;;2.28;0.22;;;;;;;;;;5547511;25;20019;-59
2024/04/18 13:46:36;;;;;;;1.48;0.28;;;;;;;;;;5560851;25;20011;-59
2024/04/18 13:49:02;;;;;;;0.40;0.10;;;;;;;;;;5538207;25;20341;-60
2024/04/18 13:51:28;;;;;;;0.25;0.10;;;;;;;;;;5551200;25;20001;-60
2024/04/18 13:53:56;;;;;;;0.13;0.00;;;;;;;;;;5560640;25;19996;-59
2024/04/18 13:56:22;;;;;;;0.98;0.10;;;;;;;;;;5557894;25;20005;-59
2024/04/18 13:58:48;;;;;;;1.83;0.43;;;;;;;;;;5560618;25;20008;-59
2024/04/18 14:01:14;;;;;;;1.48;0.15;;;;;;;;;;5551188;25;20072;-59
2024/04/18 14:03:40;;;;;;;0.13;0.03;;;;;;;;;;5546429;25;20008;-59
2024/04/18 14:06:09;;;;;;;0.43;0.20;;;;;;;;;;5529710;25;20032;-59
2024/04/18 14:08:35;;;;;;;0.15;0.05;;;;;;;;;;5544024;25;20525;-56
2024/04/18 14:11:01;;;;;;;1.98;0.20;;;;;;;;;;5557911;25;20364;-57
2024/04/18 14:13:29;;;;;;;0.40;0.03;;;;;;;;;;5563867;25;20000;-57
2024/04/18 14:18:49;;;;;;;0.47;0.20;;;;;;;;;;5545974;25;20016;-57
2024/04/18 14:21:15;;;;;;;1.20;0.30;;;;;;;;;;5556856;25;20199;-56
2024/04/18 14:23:41;;;;;;;0.73;0.13;;;;;;;;;;5559650;25;20040;-59
2024/04/18 14:26:07;;;;;;;0.65;0.10;;;;;;;;;;5544843;25;20008;-59
2024/04/18 14:28:33;;;;;;;1.02;0.20;;;;;;;;;;5543339;25;19998;-60
2024/04/18 14:30:59;;;;;;;1.25;0.30;;;;;;;;;;5527919;25;19993;-59
2024/04/18 14:33:25;;;;;;;0.60;0.30;;;;;;;;;;5531658;25;20390;-59
2024/04/18 14:35:51;;;;;;;1.88;0.10;;;;;;;;;;5536155;25;20021;-59
2024/04/18 14:38:17;;;;;;;0.68;0.10;;;;;;;;;;5537511;25;19997;-60
2024/04/18 14:40:43;;;;;;;0.30;0.20;;;;;;;;;;5550588;25;20443;-58
2024/04/18 14:43:09;;;;;;;0.00;0.00;;;;;;;;;;5553977;25;20007;-59